createdAt,value
2019-04-01T00:02:14.859Z,4.01
2019-04-01T00:12:20.199Z,3.94
2019-04-01T00:22:25.450Z,3.45
2019-04-01T00:32:30.757Z,3.13
2019-04-01T00:42:37.961Z,2.49
2019-04-01T00:52:43.499Z,1.85
2019-04-01T01:02:48.858Z,1.70
2019-04-01T01:12:54.321Z,1.43
2019-04-01T01:23:00.019Z,1.35
2019-04-01T01:33:05.379Z,1.63
2019-04-01T01:43:10.947Z,1.23
2019-04-01T01:53:16.201Z,1.14
2019-04-01T02:03:21.440Z,0.97
2019-04-01T02:13:26.803Z,0.43
2019-04-01T02:23:31.910Z,0.52
2019-04-01T02:33:37.346Z,-0.24
2019-04-01T02:43:42.522Z,0.23
2019-04-01T02:53:47.785Z,0.78
2019-04-01T03:03:53.017Z,0.44
2019-04-01T03:13:58.395Z,0.42
2019-04-01T03:24:03.547Z,0.76
2019-04-01T03:34:08.989Z,0.80
2019-04-01T03:44:14.233Z,0.43
2019-04-01T03:54:19.433Z,0.23
2019-04-01T04:04:24.592Z,-0.41
2019-04-01T04:14:29.934Z,-0.13
2019-04-01T04:24:35.234Z,-0.39
2019-04-01T04:34:40.441Z,-0.53
2019-04-01T04:44:45.693Z,-0.88
2019-04-01T04:54:51.029Z,-0.08
2019-04-01T05:04:56.239Z,1.51
2019-04-01T05:15:01.479Z,3.16
2019-04-01T05:25:07.015Z,5.01
2019-04-01T05:35:13.438Z,6.14
2019-04-01T05:45:18.519Z,6.63
2019-04-01T05:55:23.831Z,5.88
2019-04-01T06:05:29.220Z,7.50
2019-04-01T06:15:35.119Z,7.93
2019-04-01T06:25:40.318Z,11.44
2019-04-01T06:35:46.075Z,11.08
2019-04-01T06:45:51.289Z,12.79
2019-04-01T06:55:56.565Z,14.61
2019-04-01T07:06:02.600Z,14.89
2019-04-01T07:16:15.226Z,13.56
2019-04-01T07:26:15.134Z,16.33
2019-04-01T07:36:20.599Z,17.78
2019-04-01T07:46:26.158Z,16.60
2019-04-01T07:56:31.479Z,19.69
2019-04-01T08:06:37.178Z,19.87
2019-04-01T08:16:42.779Z,17.72
2019-04-01T08:26:48.399Z,12.69
2019-04-01T08:36:53.717Z,17.46
2019-04-01T08:46:59.197Z,11.61
2019-04-01T08:57:05.863Z,11.71
2019-04-01T09:07:11.259Z,11.90
2019-04-01T09:17:16.961Z,14.19
2019-04-01T09:27:22.886Z,13.42
2019-04-01T09:37:28.689Z,15.00
2019-04-01T09:47:34.397Z,16.26
2019-04-01T09:57:39.672Z,13.79
2019-04-01T10:07:45.603Z,17.81
2019-04-01T10:17:51.299Z,18.58
2019-04-01T10:27:56.843Z,18.23
2019-04-01T10:38:02.290Z,17.22
2019-04-01T10:48:07.889Z,18.47
2019-04-01T10:58:13.361Z,19.94
2019-04-01T11:08:19.080Z,16.71
2019-04-01T11:18:24.509Z,18.61
2019-04-01T11:28:30.017Z,16.74
2019-04-01T11:38:35.342Z,16.13
2019-04-01T11:48:42.189Z,17.35
2019-04-01T11:58:47.561Z,16.71
2019-04-01T12:08:53.100Z,16.81
2019-04-01T12:18:58.521Z,15.17
2019-04-01T12:29:03.923Z,16.06
2019-04-01T12:39:09.554Z,16.27
2019-04-01T12:49:15.538Z,13.45
2019-04-01T12:59:20.839Z,14.36
2019-04-01T13:09:26.182Z,14.09
2019-04-01T13:19:32.038Z,12.07
2019-04-01T13:29:37.567Z,13.44
2019-04-01T13:39:43.200Z,11.94
2019-04-01T13:49:48.819Z,11.77
2019-04-01T13:59:54.201Z,11.43
2019-04-01T14:09:59.879Z,11.49
2019-04-01T14:20:06.700Z,10.04
2019-04-01T14:30:12.401Z,10.15
2019-04-01T14:40:18.704Z,10.20
2019-04-01T14:50:24.601Z,9.79
2019-04-01T15:00:30.174Z,9.44
2019-04-01T15:10:35.849Z,9.80
2019-04-01T15:20:41.329Z,9.54
2019-04-01T15:30:47.170Z,9.37
2019-04-01T15:40:53.298Z,8.98
2019-04-01T15:50:59.052Z,8.89
2019-04-01T16:01:06.093Z,8.67
2019-04-01T16:11:12.050Z,8.53
2019-04-01T16:21:17.810Z,8.14
2019-04-01T16:31:23.421Z,7.89
2019-04-01T16:41:29.250Z,7.75
2019-04-01T16:51:35.291Z,7.52
2019-04-01T17:01:41.770Z,7.33
2019-04-01T17:11:47.666Z,7.06
2019-04-01T17:21:53.735Z,6.80
2019-04-01T17:31:59.650Z,6.50
2019-04-01T17:42:06.180Z,6.22
2019-04-01T17:52:12.290Z,6.03
2019-04-01T18:02:29.191Z,5.80
2019-04-01T18:12:34.967Z,5.59
2019-04-01T18:22:40.855Z,5.43
2019-04-01T18:32:46.729Z,5.22
2019-04-01T18:42:53.488Z,4.98
2019-04-01T18:52:59.566Z,4.75
2019-04-01T19:03:05.731Z,4.50
2019-04-01T19:13:12.748Z,4.37
2019-04-01T19:23:19.128Z,4.18
2019-04-01T19:33:25.171Z,3.99
2019-04-01T19:43:32.337Z,3.92
2019-04-01T19:53:38.310Z,3.85
2019-04-01T20:03:44.161Z,3.77
2019-04-01T20:13:50.166Z,3.52
2019-04-01T20:23:55.935Z,3.31
2019-04-01T20:34:04.349Z,3.04
2019-04-01T20:44:09.717Z,2.94
2019-04-01T20:54:16.155Z,2.95
2019-04-01T21:04:22.086Z,2.88
2019-04-01T21:14:27.559Z,2.86
2019-04-01T21:24:33.151Z,2.72
2019-04-01T21:34:40.243Z,2.69
2019-04-01T21:44:46.958Z,2.57
2019-04-01T21:54:52.533Z,2.55
2019-04-01T22:04:57.744Z,2.29
2019-04-01T22:15:03.092Z,2.30
2019-04-01T22:25:08.984Z,2.17
2019-04-01T22:35:14.583Z,2.17
2019-04-01T22:45:20.604Z,2.13
2019-04-01T22:55:28.079Z,2.05
2019-04-01T23:05:33.554Z,1.97
2019-04-01T23:15:38.864Z,1.84
2019-04-01T23:25:44.084Z,1.88
2019-04-01T23:35:49.483Z,1.80
2019-04-01T23:45:54.752Z,1.81
2019-04-01T23:56:00.165Z,1.63
